Rhonda Lamulle — WDC8441 — position and weather

sailwx.info

Track history (hours):
 
Tides and Currents Weather Stations Pressure Air Temp Water Temp Dewpoint Dewpoint Depression Visibility Wind Speed Wind Dir Waves Ship Positions

Rhonda Lamulle

Owner: Florida Marine, LLC, Mandeville, LA. More information available from US FCC via Universal Licensing System and Coast Guard Vessel Documentation Center.

Last reported at 2017-Feb-16 23:22 UTC. Time now 2017-Feb-24 21:46 UTC.
Position N 30°24' W 086°54'.

Length 13 m; draft 3 m.

Type: Towing. MMSI: 367087104.

Date/timePositionNaut miles runAvg speedWind from/ knotsBaromVisibWave heightAir tempDewpointWater temp
2017-Feb-16 23:22N 30°24' W 086°54'5 5.5
2017-Feb-16 22:33N 30°24' W 086°49'11 0.5
2017-Feb-16 00:26N 30°24' W 086°35'5 5.8
2017-Feb-15 23:33N 30°26' W 086°30'3 3.2
2017-Feb-15 22:33N 30°29' W 086°29'  
2017-Feb-13 15:06N 30°26' W 086°14'3 5.5
2017-Feb-13 14:33N 30°26' W 086°17'6 5.6
2017-Feb-13 13:33N 30°26' W 086°23'6 5.7
2017-Feb-13 12:33N 30°26' W 086°30'5 5.3
2017-Feb-13 11:33N 30°24' W 086°36'7 4.8
2017-Feb-13 10:03N 30°24' W 086°44'3 5.0
2017-Feb-13 09:33N 30°24' W 086°47'  
Track history (hours):
 
Tides and Currents Weather Stations Pressure Air Temp Water Temp Dewpoint Dewpoint Depression Visibility Wind Speed Wind Dir Waves Ship Positions

Rhonda Lamulle

Owner: Florida Marine, LLC, Mandeville, LA. More information available from US FCC via Universal Licensing System and Coast Guard Vessel Documentation Center.

Last reported at 2017-Feb-16 23:22 UTC. Time now 2017-Feb-24 21:46 UTC.
Position N 30°24' W 086°54'.

Length 13 m; draft 3 m.

Type: Towing. MMSI: 367087104.

Date/timePositionNaut miles runAvg speedWind from/ knotsBaromVisibWave heightAir tempDewpointWater temp
2017-Feb-16 23:22N 30°24' W 086°54'5 5.5
2017-Feb-16 22:33N 30°24' W 086°49'11 0.5
2017-Feb-16 00:26N 30°24' W 086°35'5 5.8
2017-Feb-15 23:33N 30°26' W 086°30'3 3.2
2017-Feb-15 22:33N 30°29' W 086°29'  
2017-Feb-13 15:06N 30°26' W 086°14'3 5.5
2017-Feb-13 14:33N 30°26' W 086°17'6 5.6
2017-Feb-13 13:33N 30°26' W 086°23'6 5.7
2017-Feb-13 12:33N 30°26' W 086°30'5 5.3
2017-Feb-13 11:33N 30°24' W 086°36'7 4.8
2017-Feb-13 10:03N 30°24' W 086°44'3 5.0
2017-Feb-13 09:33N 30°24' W 086°47'  

Dump ship's entire track history